createdAt,value
2017-06-20T00:00:01.115Z,1012.46
2017-06-20T00:00:42.020Z,1012.46
2017-06-20T00:01:22.915Z,1012.43
2017-06-20T00:02:03.814Z,1012.44
2017-06-20T00:02:44.712Z,1012.45
2017-06-20T00:03:25.611Z,1012.45
2017-06-20T00:04:06.498Z,1012.43
2017-06-20T00:04:47.398Z,1012.43
2017-06-20T00:05:28.296Z,1012.41
2017-06-20T00:06:09.190Z,1012.44
2017-06-20T00:06:50.077Z,1012.44
2017-06-20T00:07:30.985Z,1012.43
2017-06-20T00:08:11.895Z,1012.47
2017-06-20T00:08:52.782Z,1012.45
2017-06-20T00:09:33.690Z,1012.45
2017-06-20T00:10:14.580Z,1012.45
2017-06-20T00:10:55.471Z,1012.43
2017-06-20T00:11:36.358Z,1012.42
2017-06-20T00:12:17.242Z,1012.42
2017-06-20T00:12:58.132Z,1012.4
2017-06-20T00:13:39.037Z,1012.42
2017-06-20T00:14:19.938Z,1012.39
2017-06-20T00:15:00.836Z,1012.42
2017-06-20T00:15:41.722Z,1012.4
2017-06-20T00:16:22.634Z,1012.37
2017-06-20T00:17:03.527Z,1012.43
2017-06-20T00:17:44.424Z,1012.39
2017-06-20T00:18:25.331Z,1012.4
2017-06-20T00:19:06.229Z,1012.39
2017-06-20T00:19:47.124Z,1012.4
2017-06-20T00:20:28.023Z,1012.41
2017-06-20T00:21:08.921Z,1012.36
2017-06-20T00:21:49.819Z,1012.34
2017-06-20T00:22:30.706Z,1012.37
2017-06-20T00:23:11.618Z,1012.41
2017-06-20T00:23:52.525Z,1012.38
2017-06-20T00:24:33.414Z,1012.37
2017-06-20T00:25:14.335Z,1012.35
2017-06-20T00:25:55.214Z,1012.36
2017-06-20T00:26:36.109Z,1012.34
2017-06-20T00:27:16.995Z,1012.33
2017-06-20T00:27:57.910Z,1012.29
2017-06-20T00:28:38.808Z,1012.3
2017-06-20T00:29:19.693Z,1012.3
2017-06-20T00:30:00.601Z,1012.33
2017-06-20T00:30:41.541Z,1012.32
2017-06-20T00:31:22.448Z,1012.28
2017-06-20T00:32:03.336Z,1012.33
2017-06-20T00:32:44.243Z,1012.33
2017-06-20T00:33:25.138Z,1012.34
2017-06-20T00:34:06.051Z,1012.32
2017-06-20T00:34:46.938Z,1012.34
2017-06-20T00:35:27.820Z,1012.33
2017-06-20T00:36:08.726Z,1012.3
2017-06-20T00:36:49.618Z,1012.31
2017-06-20T00:37:30.497Z,1012.29
2017-06-20T00:38:11.396Z,1012.31
2017-06-20T00:38:52.288Z,1012.28
2017-06-20T00:39:33.189Z,1012.27
2017-06-20T00:40:14.080Z,1012.25
2017-06-20T00:40:54.983Z,1012.25
2017-06-20T00:41:35.888Z,1012.22
2017-06-20T00:42:16.806Z,1012.2
2017-06-20T00:42:57.681Z,1012.21
2017-06-20T00:43:38.578Z,1012.18
2017-06-20T00:44:19.474Z,1012.19
2017-06-20T00:45:00.372Z,1012.18
2017-06-20T00:45:41.269Z,1012.21
2017-06-20T00:46:22.164Z,1012.15
2017-06-20T00:47:03.094Z,1012.17
2017-06-20T00:47:43.955Z,1012.14
2017-06-20T00:48:24.861Z,1012.18
2017-06-20T00:49:05.772Z,1012.14
2017-06-20T00:49:46.656Z,1012.14
2017-06-20T00:50:27.563Z,1012.16
2017-06-20T00:51:08.453Z,1012.13
2017-06-20T00:51:49.345Z,1012.13
2017-06-20T00:52:30.245Z,1012.11
2017-06-20T00:53:11.152Z,1012.11
2017-06-20T00:53:52.042Z,1012.14
2017-06-20T00:54:32.937Z,1012.16
2017-06-20T00:55:13.826Z,1012.14
2017-06-20T00:55:54.733Z,1012.14
2017-06-20T00:56:35.631Z,1012.13
2017-06-20T00:57:16.523Z,1012.15
2017-06-20T00:57:57.423Z,1012.15
2017-06-20T00:58:38.318Z,1012.14
2017-06-20T00:59:19.227Z,1012.14
2017-06-20T01:00:00.132Z,1012.13
2017-06-20T01:00:41.040Z,1012.12
2017-06-20T01:01:21.932Z,1012.13
2017-06-20T01:02:02.839Z,1012.09
2017-06-20T01:02:43.747Z,1012.11
2017-06-20T01:03:24.635Z,1012.12
2017-06-20T01:04:05.544Z,1012.09
2017-06-20T01:04:46.459Z,1012.13
2017-06-20T01:05:27.363Z,1012.13
2017-06-20T01:06:08.261Z,1012.12
2017-06-20T01:06:49.166Z,1012.12
2017-06-20T01:07:30.072Z,1012.08
2017-06-20T01:08:10.960Z,1012.1
2017-06-20T01:08:51.862Z,1012.06
2017-06-20T01:09:32.755Z,1012.06
2017-06-20T01:10:13.664Z,1012.05
2017-06-20T01:10:54.557Z,1012.04
2017-06-20T01:11:35.448Z,1012.04
2017-06-20T01:12:16.342Z,1012.08
2017-06-20T01:12:57.221Z,1012.04
2017-06-20T01:13:38.109Z,1012.04
2017-06-20T01:14:19.023Z,1012.02
2017-06-20T01:14:59.926Z,1012.07
2017-06-20T01:15:40.835Z,1012.03
2017-06-20T01:16:21.735Z,1012.04
2017-06-20T01:17:02.643Z,1012
2017-06-20T01:17:43.541Z,1012.01
2017-06-20T01:18:24.440Z,1011.95
2017-06-20T01:19:05.351Z,1011.98
2017-06-20T01:19:46.283Z,1011.94
2017-06-20T01:20:27.180Z,1011.93
2017-06-20T01:21:08.063Z,1011.95
2017-06-20T01:21:48.971Z,1011.96
2017-06-20T01:22:29.863Z,1011.97
2017-06-20T01:23:10.762Z,1011.97
2017-06-20T01:23:51.657Z,1011.93
2017-06-20T01:24:32.549Z,1011.93
2017-06-20T01:25:13.447Z,1011.98
2017-06-20T01:25:54.345Z,1011.95
2017-06-20T01:26:35.234Z,1011.95
2017-06-20T01:27:16.140Z,1011.94
2017-06-20T01:27:57.022Z,1011.93
2017-06-20T01:28:37.922Z,1011.96
2017-06-20T01:29:18.817Z,1011.95
2017-06-20T01:29:59.722Z,1011.94
2017-06-20T01:30:40.630Z,1011.95
2017-06-20T01:31:21.526Z,1011.93
2017-06-20T01:32:02.436Z,1011.95
2017-06-20T01:32:43.346Z,1011.93
2017-06-20T01:33:24.244Z,1011.96
2017-06-20T01:34:05.149Z,1011.92
2017-06-20T01:34:46.045Z,1011.88
2017-06-20T01:35:26.957Z,1011.91
2017-06-20T01:36:07.848Z,1011.88
2017-06-20T01:36:48.760Z,1011.91
2017-06-20T01:37:29.660Z,1011.89
2017-06-20T01:38:10.549Z,1011.9
2017-06-20T01:38:51.443Z,1011.92
2017-06-20T01:39:32.333Z,1011.9
2017-06-20T01:40:13.231Z,1011.91
2017-06-20T01:40:54.131Z,1011.9
2017-06-20T01:41:35.026Z,1011.91
2017-06-20T01:42:15.931Z,1011.88
2017-06-20T01:42:56.827Z,1011.91
2017-06-20T01:43:37.719Z,1011.85
2017-06-20T01:44:18.643Z,1011.87
2017-06-20T01:44:59.542Z,1011.85
2017-06-20T01:45:40.437Z,1011.86
2017-06-20T01:46:21.339Z,1011.82
2017-06-20T01:47:02.230Z,1011.85
2017-06-20T01:47:43.204Z,1011.86
2017-06-20T01:48:24.081Z,1011.87
2017-06-20T01:49:04.982Z,1011.86
2017-06-20T01:49:45.903Z,1011.88
2017-06-20T01:50:26.794Z,1011.87
2017-06-20T01:51:07.697Z,1011.89
2017-06-20T01:51:48.597Z,1011.89
2017-06-20T01:52:29.495Z,1011.88
2017-06-20T01:53:10.406Z,1011.88
2017-06-20T01:53:51.294Z,1011.87
2017-06-20T01:54:32.216Z,1011.84
2017-06-20T01:55:13.121Z,1011.85
2017-06-20T01:55:54.022Z,1011.81
2017-06-20T01:56:34.913Z,1011.84
2017-06-20T01:57:15.807Z,1011.79
2017-06-20T01:57:56.713Z,1011.77
2017-06-20T01:58:37.614Z,1011.79
2017-06-20T01:59:18.519Z,1011.76
2017-06-20T01:59:59.415Z,1011.75
2017-06-20T02:00:40.302Z,1011.73
2017-06-20T02:01:21.199Z,1011.68
2017-06-20T02:02:02.139Z,1011.67
2017-06-20T02:02:43.035Z,1011.66
2017-06-20T02:03:23.965Z,1011.69
2017-06-20T02:04:04.863Z,1011.68
2017-06-20T02:04:45.775Z,1011.65
2017-06-20T02:05:26.672Z,1011.68
2017-06-20T02:06:07.574Z,1011.63
2017-06-20T02:06:48.470Z,1011.67
2017-06-20T02:07:29.379Z,1011.65
2017-06-20T02:08:10.277Z,1011.6
2017-06-20T02:08:51.238Z,1011.65
2017-06-20T02:09:32.119Z,1011.65
2017-06-20T02:10:13.007Z,1011.66
2017-06-20T02:10:53.908Z,1011.64
2017-06-20T02:11:34.797Z,1011.64
2017-06-20T02:12:15.699Z,1011.65
2017-06-20T02:12:56.589Z,1011.67
2017-06-20T02:13:37.521Z,1011.68
2017-06-20T02:14:18.421Z,1011.66
2017-06-20T02:14:59.315Z,1011.65
2017-06-20T02:15:40.218Z,1011.64
2017-06-20T02:16:21.117Z,1011.65
2017-06-20T02:17:02.015Z,1011.62
2017-06-20T02:17:42.919Z,1011.6
2017-06-20T02:18:23.814Z,1011.6
2017-06-20T02:19:04.719Z,1011.64
2017-06-20T02:19:45.605Z,1011.63
2017-06-20T02:20:26.509Z,1011.65
2017-06-20T02:21:07.412Z,1011.64
2017-06-20T02:21:48.322Z,1011.65
2017-06-20T02:22:29.213Z,1011.63
2017-06-20T02:23:10.103Z,1011.63
2017-06-20T02:23:51.010Z,1011.63
2017-06-20T02:24:31.918Z,1011.65
2017-06-20T02:25:12.822Z,1011.6
2017-06-20T02:25:53.775Z,1011.64
2017-06-20T02:26:34.680Z,1011.59
2017-06-20T02:27:15.573Z,1011.62
2017-06-20T02:27:56.471Z,1011.6
2017-06-20T02:28:37.366Z,1011.58
2017-06-20T02:29:18.267Z,1011.59
2017-06-20T02:29:59.165Z,1011.56
2017-06-20T02:30:40.055Z,1011.56
2017-06-20T02:31:20.961Z,1011.54
2017-06-20T02:32:01.862Z,1011.58
2017-06-20T02:32:42.761Z,1011.56
2017-06-20T02:33:23.655Z,1011.58
2017-06-20T02:34:04.551Z,1011.58
2017-06-20T02:34:45.456Z,1011.57
2017-06-20T02:35:26.354Z,1011.59
2017-06-20T02:36:07.255Z,1011.6
2017-06-20T02:36:48.152Z,1011.59
2017-06-20T02:37:29.063Z,1011.57
2017-06-20T02:38:09.922Z,1011.61
2017-06-20T02:38:50.848Z,1011.61
2017-06-20T02:39:31.785Z,1011.59
2017-06-20T02:40:12.691Z,1011.58
2017-06-20T02:40:53.567Z,1011.57
2017-06-20T02:41:34.462Z,1011.55
2017-06-20T02:42:15.353Z,1011.55
2017-06-20T02:42:56.255Z,1011.57
2017-06-20T02:43:37.189Z,1011.55
2017-06-20T02:44:18.093Z,1011.52
2017-06-20T02:44:58.990Z,1011.53
2017-06-20T02:45:39.887Z,1011.51
2017-06-20T02:46:20.775Z,1011.54
2017-06-20T02:47:01.678Z,1011.56
2017-06-20T02:47:42.606Z,1011.55
2017-06-20T02:48:23.503Z,1011.53
2017-06-20T02:49:04.404Z,1011.55
2017-06-20T02:49:45.302Z,1011.54
2017-06-20T02:50:26.199Z,1011.52
2017-06-20T02:51:07.096Z,1011.51
2017-06-20T02:51:47.982Z,1011.48
2017-06-20T02:52:28.871Z,1011.53
2017-06-20T02:53:09.776Z,1011.52
2017-06-20T02:53:50.668Z,1011.5
2017-06-20T02:54:31.566Z,1011.51
2017-06-20T02:55:12.472Z,1011.51
2017-06-20T02:55:53.373Z,1011.47
2017-06-20T02:56:34.280Z,1011.49
2017-06-20T02:57:15.177Z,1011.49
2017-06-20T02:57:56.079Z,1011.52
2017-06-20T02:58:36.968Z,1011.5
2017-06-20T02:59:17.871Z,1011.49
2017-06-20T02:59:58.773Z,1011.53
2017-06-20T03:00:39.643Z,1011.52
2017-06-20T03:01:20.569Z,1011.55
2017-06-20T03:02:01.451Z,1011.55
2017-06-20T03:02:42.354Z,1011.52
2017-06-20T03:03:23.253Z,1011.53
2017-06-20T03:04:04.145Z,1011.53
2017-06-20T03:04:45.035Z,1011.52
2017-06-20T03:05:25.945Z,1011.52
2017-06-20T03:06:06.811Z,1011.52
2017-06-20T03:06:47.710Z,1011.52
2017-06-20T03:07:28.620Z,1011.51
2017-06-20T03:08:09.493Z,1011.54
2017-06-20T03:08:50.373Z,1011.48
2017-06-20T03:09:31.270Z,1011.49
2017-06-20T03:10:12.219Z,1011.49
2017-06-20T03:10:53.121Z,1011.46
2017-06-20T03:11:34.002Z,1011.48
2017-06-20T03:12:14.905Z,1011.48
2017-06-20T03:12:55.799Z,1011.51
2017-06-20T03:13:36.682Z,1011.5
2017-06-20T03:14:17.587Z,1011.5
2017-06-20T03:14:58.472Z,1011.5
2017-06-20T03:15:39.359Z,1011.5
2017-06-20T03:16:20.248Z,1011.52
2017-06-20T03:17:01.146Z,1011.54
2017-06-20T03:17:42.040Z,1011.53
2017-06-20T03:18:22.938Z,1011.55
2017-06-20T03:19:03.840Z,1011.55
2017-06-20T03:19:44.756Z,1011.52
2017-06-20T03:20:25.701Z,1011.52
2017-06-20T03:21:06.594Z,1011.53
2017-06-20T03:21:47.491Z,1011.54
2017-06-20T03:22:28.379Z,1011.53
2017-06-20T03:23:09.281Z,1011.54
2017-06-20T03:23:50.188Z,1011.52
2017-06-20T03:24:31.507Z,1011.48
2017-06-20T03:25:12.342Z,1011.48
2017-06-20T03:25:53.251Z,1011.55
2017-06-20T03:26:34.209Z,1011.5
2017-06-20T03:27:15.113Z,1011.53
2017-06-20T03:27:56.091Z,1011.53
2017-06-20T03:28:36.971Z,1011.51
2017-06-20T03:29:17.913Z,1011.51
2017-06-20T03:29:58.808Z,1011.53
2017-06-20T03:30:39.771Z,1011.54
2017-06-20T03:31:20.927Z,1011.58
2017-06-20T03:32:01.907Z,1011.55
2017-06-20T03:32:42.869Z,1011.54
2017-06-20T03:33:23.833Z,1011.54
2017-06-20T03:34:04.854Z,1011.55
2017-06-20T03:34:45.808Z,1011.57
2017-06-20T03:35:26.753Z,1011.56
2017-06-20T03:36:07.695Z,1011.57
2017-06-20T03:36:48.666Z,1011.58
2017-06-20T03:37:29.652Z,1011.53
2017-06-20T03:38:10.677Z,1011.55
2017-06-20T03:38:51.561Z,1011.55
2017-06-20T03:39:32.564Z,1011.53
2017-06-20T03:40:13.562Z,1011.54
2017-06-20T03:40:54.451Z,1011.57
2017-06-20T03:41:35.398Z,1011.54
2017-06-20T03:42:16.339Z,1011.51
2017-06-20T03:42:57.303Z,1011.51
2017-06-20T03:43:38.345Z,1011.48
2017-06-20T03:44:19.462Z,1011.5
2017-06-20T03:45:00.549Z,1011.53
2017-06-20T03:45:41.447Z,1011.51
2017-06-20T03:46:22.445Z,1011.52
2017-06-20T03:47:03.395Z,1011.5
2017-06-20T03:47:44.305Z,1011.52
2017-06-20T03:48:25.222Z,1011.5
2017-06-20T03:49:06.219Z,1011.51
2017-06-20T03:49:47.126Z,1011.49
2017-06-20T03:50:28.118Z,1011.52
2017-06-20T03:53:30.301Z,1011.51
2017-06-20T03:54:11.126Z,1011.5
2017-06-20T03:54:52.080Z,1011.52
2017-06-20T03:55:32.978Z,1011.55
2017-06-20T03:56:13.995Z,1011.54
2017-06-20T03:56:54.902Z,1011.49
2017-06-20T03:57:35.829Z,1011.54
2017-06-20T03:58:16.788Z,1011.49
2017-06-20T03:58:57.728Z,1011.49
2017-06-20T03:59:38.665Z,1011.48
2017-06-20T04:00:19.583Z,1011.48
2017-06-20T04:01:00.677Z,1011.45
2017-06-20T04:02:34.668Z,1011.53
2017-06-20T04:03:15.836Z,1011.47
2017-06-20T04:03:56.882Z,1011.49
2017-06-20T04:04:37.764Z,1011.49
2017-06-20T04:05:18.686Z,1011.46
2017-06-20T04:05:59.596Z,1011.47
2017-06-20T04:06:40.481Z,1011.46
2017-06-20T04:07:21.397Z,1011.51
2017-06-20T04:08:02.308Z,1011.47
2017-06-20T04:08:43.220Z,1011.49
2017-06-20T04:09:24.200Z,1011.48
2017-06-20T04:10:06.626Z,1011.47
2017-06-20T04:10:49.131Z,1011.48
2017-06-20T04:13:03.623Z,1011.47
2017-06-20T04:13:44.486Z,1011.47
2017-06-20T04:14:25.465Z,1011.5
2017-06-20T04:15:06.392Z,1011.48
2017-06-20T04:15:47.476Z,1011.47
2017-06-20T04:19:04.721Z,1011.5
2017-06-20T04:19:45.654Z,1011.48
2017-06-20T04:21:19.948Z,1011.47
2017-06-20T04:22:01.695Z,1011.46
2017-06-20T04:22:42.701Z,1011.48
2017-06-20T04:23:23.608Z,1011.49
2017-06-20T04:24:04.508Z,1011.49
2017-06-20T04:24:45.409Z,1011.45
2017-06-20T04:25:26.298Z,1011.46
2017-06-20T04:26:07.208Z,1011.51
2017-06-20T04:26:50.971Z,1011.48
2017-06-20T04:29:06.313Z,1011.46
2017-06-20T04:29:47.210Z,1011.47
2017-06-20T04:30:28.143Z,1011.47
2017-06-20T04:31:09.054Z,1011.45
2017-06-20T04:31:49.962Z,1011.48
2017-06-20T04:32:30.897Z,1011.48
2017-06-20T04:33:11.762Z,1011.46
2017-06-20T04:33:52.660Z,1011.48
2017-06-20T04:36:01.766Z,1011.46
2017-06-20T04:36:42.688Z,1011.47
2017-06-20T04:37:23.560Z,1011.46
2017-06-20T04:38:04.704Z,1011.48
2017-06-20T04:38:45.674Z,1011.46
2017-06-20T04:39:26.609Z,1011.51
2017-06-20T04:40:07.523Z,1011.48
2017-06-20T04:40:48.435Z,1011.49
2017-06-20T04:41:29.369Z,1011.51
2017-06-20T04:42:10.260Z,1011.52
2017-06-20T04:42:51.163Z,1011.53
2017-06-20T04:43:32.099Z,1011.56
2017-06-20T04:44:13.001Z,1011.49
2017-06-20T04:44:53.917Z,1011.54
2017-06-20T04:45:34.821Z,1011.56
2017-06-20T04:46:15.808Z,1011.53
2017-06-20T04:46:56.712Z,1011.56
2017-06-20T04:47:37.653Z,1011.57
2017-06-20T04:48:18.545Z,1011.56
2017-06-20T04:48:59.446Z,1011.57
2017-06-20T04:49:40.354Z,1011.57
2017-06-20T04:50:21.281Z,1011.56
2017-06-20T04:51:02.194Z,1011.53
2017-06-20T04:51:43.129Z,1011.54
2017-06-20T04:52:24.110Z,1011.55
2017-06-20T04:53:04.980Z,1011.59
2017-06-20T04:53:45.911Z,1011.55
2017-06-20T04:54:26.882Z,1011.59
2017-06-20T04:55:07.815Z,1011.57
2017-06-20T04:55:48.810Z,1011.56
2017-06-20T04:56:31.390Z,1011.5
2017-06-20T04:57:18.568Z,1011.52
2017-06-20T04:57:59.514Z,1011.53
2017-06-20T04:59:39.561Z,1011.5
2017-06-20T05:00:22.089Z,1011.47
2017-06-20T05:01:02.961Z,1011.49
2017-06-20T05:01:43.944Z,1011.49
2017-06-20T05:02:24.846Z,1011.5
2017-06-20T05:03:08.244Z,1011.5
2017-06-20T05:03:49.153Z,1011.51
2017-06-20T05:04:30.074Z,1011.48
2017-06-20T05:05:10.994Z,1011.49
2017-06-20T05:05:51.966Z,1011.49
2017-06-20T05:06:33.005Z,1011.49
2017-06-20T05:07:13.937Z,1011.48
2017-06-20T05:07:58.372Z,1011.44
2017-06-20T05:08:39.276Z,1011.47
2017-06-20T05:09:20.204Z,1011.48
2017-06-20T05:10:02.868Z,1011.47
2017-06-20T05:10:43.779Z,1011.45
2017-06-20T05:19:00.627Z,1011.55
2017-06-20T05:20:54.376Z,1011.58
2017-06-20T05:21:35.323Z,1011.56
2017-06-20T05:22:16.234Z,1011.57
2017-06-20T05:22:57.168Z,1011.53
2017-06-20T05:23:38.053Z,1011.54
2017-06-20T05:24:18.957Z,1011.52
2017-06-20T05:24:59.895Z,1011.54
2017-06-20T05:25:40.722Z,1011.55
2017-06-20T05:26:21.634Z,1011.51
2017-06-20T05:27:02.505Z,1011.52
2017-06-20T05:27:43.397Z,1011.54
2017-06-20T05:28:24.485Z,1011.54
2017-06-20T05:29:05.475Z,1011.54
2017-06-20T05:29:46.361Z,1011.54
2017-06-20T05:30:27.265Z,1011.51
2017-06-20T05:31:08.236Z,1011.56
2017-06-20T05:31:49.366Z,1011.52
2017-06-20T05:32:30.264Z,1011.52
2017-06-20T05:33:11.369Z,1011.5
2017-06-20T05:33:52.294Z,1011.55
2017-06-20T05:34:33.218Z,1011.52
2017-06-20T05:35:14.130Z,1011.5
2017-06-20T05:35:55.018Z,1011.48
2017-06-20T05:36:35.967Z,1011.49
2017-06-20T05:37:16.867Z,1011.48
2017-06-20T05:39:18.913Z,1011.51
2017-06-20T05:40:52.283Z,1011.52
2017-06-20T05:43:06.176Z,1011.52
2017-06-20T05:43:47.056Z,1011.53
2017-06-20T05:44:27.988Z,1011.54
2017-06-20T05:45:08.899Z,1011.49
2017-06-20T05:45:49.873Z,1011.51
2017-06-20T05:46:30.773Z,1011.49
2017-06-20T05:47:11.687Z,1011.51
2017-06-20T05:47:52.583Z,1011.5
2017-06-20T05:48:33.471Z,1011.49
2017-06-20T05:49:14.361Z,1011.47
2017-06-20T05:49:55.263Z,1011.5
2017-06-20T05:50:36.167Z,1011.48
2017-06-20T05:51:17.069Z,1011.49
2017-06-20T05:51:58.001Z,1011.5
2017-06-20T05:52:38.876Z,1011.51
2017-06-20T05:54:37.521Z,1011.49
2017-06-20T05:55:18.450Z,1011.52
2017-06-20T05:55:59.476Z,1011.51
2017-06-20T05:56:40.539Z,1011.51
2017-06-20T05:58:19.928Z,1011.49
2017-06-20T05:59:00.965Z,1011.47
2017-06-20T06:02:36.737Z,1011.51
2017-06-20T06:03:17.636Z,1011.49
2017-06-20T06:03:58.558Z,1011.5
2017-06-20T06:09:32.983Z,1011.51
2017-06-20T06:10:16.504Z,1011.48
2017-06-20T06:13:25.465Z,1011.53
2017-06-20T06:14:06.455Z,1011.54
2017-06-20T06:14:47.344Z,1011.56
2017-06-20T06:15:28.257Z,1011.57
2017-06-20T06:16:09.183Z,1011.56
2017-06-20T06:16:50.111Z,1011.58
2017-06-20T06:17:31.047Z,1011.58
2017-06-20T06:18:55.682Z,1011.54
2017-06-20T06:21:30.816Z,1011.56
2017-06-20T06:22:11.854Z,1011.55
2017-06-20T06:22:52.842Z,1011.56
2017-06-20T06:23:33.736Z,1011.54
2017-06-20T06:24:14.642Z,1011.55
2017-06-20T06:24:55.533Z,1011.58
2017-06-20T06:25:36.440Z,1011.53
2017-06-20T06:26:17.338Z,1011.54
2017-06-20T06:26:58.264Z,1011.57
2017-06-20T06:27:39.199Z,1011.56
2017-06-20T06:28:20.090Z,1011.53
2017-06-20T06:29:00.982Z,1011.56
2017-06-20T06:29:41.896Z,1011.57
2017-06-20T06:30:22.782Z,1011.59
2017-06-20T06:31:03.683Z,1011.57
2017-06-20T06:31:44.597Z,1011.56
2017-06-20T06:32:25.529Z,1011.59
2017-06-20T06:33:06.406Z,1011.62
2017-06-20T06:33:47.311Z,1011.58
2017-06-20T06:34:28.215Z,1011.59
2017-06-20T06:35:09.083Z,1011.6
2017-06-20T06:35:50.005Z,1011.6
2017-06-20T06:36:30.918Z,1011.63
2017-06-20T06:37:11.823Z,1011.6
2017-06-20T06:37:52.717Z,1011.59
2017-06-20T06:38:33.597Z,1011.61
2017-06-20T06:39:14.505Z,1011.62
2017-06-20T06:39:55.409Z,1011.58
2017-06-20T06:40:36.367Z,1011.56
2017-06-20T06:41:17.308Z,1011.53
2017-06-20T06:41:58.215Z,1011.54
2017-06-20T06:42:39.122Z,1011.51
2017-06-20T06:43:20.020Z,1011.54
2017-06-20T06:44:00.938Z,1011.54
2017-06-20T06:44:41.847Z,1011.53
2017-06-20T06:45:22.737Z,1011.52
2017-06-20T06:47:16.943Z,1011.53
2017-06-20T06:47:57.890Z,1011.55
2017-06-20T06:48:38.782Z,1011.53
2017-06-20T06:49:19.670Z,1011.56
2017-06-20T06:50:00.658Z,1011.54
2017-06-20T06:50:41.652Z,1011.57
2017-06-20T06:51:22.570Z,1011.55
2017-06-20T06:56:29.840Z,1011.6
2017-06-20T06:57:10.891Z,1011.59
2017-06-20T06:58:44.310Z,1011.63
2017-06-20T06:59:25.255Z,1011.61
2017-06-20T07:00:06.219Z,1011.62
2017-06-20T07:00:47.206Z,1011.62
2017-06-20T07:04:11.041Z,1011.61
2017-06-20T07:04:51.964Z,1011.63
2017-06-20T07:05:32.957Z,1011.62
2017-06-20T07:06:13.924Z,1011.64
2017-06-20T07:06:54.808Z,1011.61
2017-06-20T07:07:35.719Z,1011.61
2017-06-20T07:08:16.668Z,1011.63
2017-06-20T07:08:57.564Z,1011.66
2017-06-20T07:09:39.504Z,1011.64
2017-06-20T07:10:20.518Z,1011.63
2017-06-20T07:11:01.550Z,1011.6
2017-06-20T07:11:42.475Z,1011.62
2017-06-20T07:12:23.415Z,1011.58
2017-06-20T07:13:04.319Z,1011.55
2017-06-20T07:13:45.215Z,1011.56
2017-06-20T07:14:26.127Z,1011.56
2017-06-20T07:15:07.142Z,1011.6
2017-06-20T07:15:48.062Z,1011.59
2017-06-20T07:16:28.995Z,1011.6
2017-06-20T07:17:09.983Z,1011.58
2017-06-20T07:17:51.042Z,1011.59
2017-06-20T07:18:31.945Z,1011.63
2017-06-20T07:19:12.868Z,1011.62
2017-06-20T07:19:53.887Z,1011.58
2017-06-20T07:20:34.872Z,1011.63
2017-06-20T07:21:15.808Z,1011.64
2017-06-20T07:21:56.762Z,1011.66
2017-06-20T07:22:37.670Z,1011.64
2017-06-20T07:23:18.597Z,1011.67
2017-06-20T07:23:59.501Z,1011.66
2017-06-20T07:24:40.464Z,1011.67
2017-06-20T07:25:21.509Z,1011.7
2017-06-20T07:26:02.421Z,1011.66
2017-06-20T07:26:43.430Z,1011.67
2017-06-20T07:27:24.287Z,1011.65
2017-06-20T07:28:05.224Z,1011.68
2017-06-20T07:28:46.121Z,1011.71
2017-06-20T07:29:27.017Z,1011.69
2017-06-20T07:30:07.919Z,1011.7
2017-06-20T07:30:48.804Z,1011.73
2017-06-20T07:31:29.927Z,1011.67
2017-06-20T07:32:10.734Z,1011.7
2017-06-20T07:32:51.665Z,1011.68
2017-06-20T07:33:32.582Z,1011.72
2017-06-20T07:35:26.354Z,1011.7
2017-06-20T07:36:07.308Z,1011.66
2017-06-20T07:36:48.223Z,1011.69
2017-06-20T07:37:29.152Z,1011.66
2017-06-20T07:39:07.625Z,1011.66
2017-06-20T07:39:48.578Z,1011.67
2017-06-20T07:40:29.538Z,1011.7
2017-06-20T07:41:10.529Z,1011.68
2017-06-20T07:41:51.483Z,1011.68
2017-06-20T07:42:32.358Z,1011.64
2017-06-20T07:43:13.279Z,1011.6
2017-06-20T07:43:54.182Z,1011.63
2017-06-20T07:44:35.078Z,1011.65
2017-06-20T07:45:15.973Z,1011.63
2017-06-20T07:45:56.876Z,1011.64
2017-06-20T07:47:55.816Z,1011.65
2017-06-20T07:48:36.708Z,1011.66
2017-06-20T07:49:17.609Z,1011.66
2017-06-20T07:49:58.508Z,1011.66
2017-06-20T07:50:39.408Z,1011.69
2017-06-20T07:51:20.325Z,1011.72
2017-06-20T07:52:01.212Z,1011.66
2017-06-20T07:52:42.090Z,1011.69
2017-06-20T07:53:23.020Z,1011.75
2017-06-20T07:54:03.888Z,1011.72
2017-06-20T07:54:44.787Z,1011.74
2017-06-20T07:55:25.709Z,1011.74
2017-06-20T07:56:06.579Z,1011.73
2017-06-20T07:56:47.478Z,1011.75
2017-06-20T07:57:28.379Z,1011.72
2017-06-20T07:58:09.277Z,1011.73
2017-06-20T07:58:50.182Z,1011.73
2017-06-20T07:59:31.075Z,1011.73
2017-06-20T08:00:11.973Z,1011.72
2017-06-20T08:00:52.893Z,1011.72
2017-06-20T08:01:33.818Z,1011.73
2017-06-20T08:02:14.726Z,1011.77
2017-06-20T08:02:55.633Z,1011.78
2017-06-20T08:03:36.527Z,1011.8
2017-06-20T08:04:17.443Z,1011.79
2017-06-20T08:04:58.350Z,1011.78
2017-06-20T08:05:39.262Z,1011.79
2017-06-20T08:06:20.158Z,1011.77
2017-06-20T08:07:01.057Z,1011.79
2017-06-20T08:07:41.981Z,1011.77
2017-06-20T08:08:22.882Z,1011.72
2017-06-20T08:09:03.783Z,1011.72
2017-06-20T08:09:44.671Z,1011.75
2017-06-20T08:10:25.590Z,1011.73
2017-06-20T08:11:06.824Z,1011.73
2017-06-20T08:11:47.722Z,1011.73
2017-06-20T08:12:28.598Z,1011.75
2017-06-20T08:13:09.500Z,1011.73
2017-06-20T08:15:03.204Z,1011.73
2017-06-20T08:15:44.089Z,1011.71
2017-06-20T08:16:25.004Z,1011.71
2017-06-20T08:17:05.892Z,1011.67
2017-06-20T08:17:46.811Z,1011.73
2017-06-20T08:18:27.718Z,1011.69
2017-06-20T08:19:08.622Z,1011.7
2017-06-20T08:19:49.532Z,1011.76
2017-06-20T08:20:30.486Z,1011.73
2017-06-20T08:21:11.402Z,1011.72
2017-06-20T08:21:52.334Z,1011.7
2017-06-20T08:22:33.238Z,1011.69
2017-06-20T08:23:14.130Z,1011.67
2017-06-20T08:23:55.035Z,1011.71
2017-06-20T08:24:35.979Z,1011.72
2017-06-20T08:25:16.921Z,1011.7
2017-06-20T08:25:57.838Z,1011.69
2017-06-20T08:26:38.728Z,1011.66
2017-06-20T08:27:19.640Z,1011.67
2017-06-20T08:28:00.534Z,1011.59
2017-06-20T08:28:41.472Z,1011.64
2017-06-20T08:29:22.378Z,1011.64
2017-06-20T08:30:03.293Z,1011.73
2017-06-20T08:30:44.201Z,1011.65
2017-06-20T08:31:25.115Z,1011.62
2017-06-20T08:32:06.005Z,1011.64
2017-06-20T08:32:46.897Z,1011.65
2017-06-20T08:33:27.799Z,1011.6
2017-06-20T08:34:08.706Z,1011.56
2017-06-20T08:34:49.608Z,1011.58
2017-06-20T08:35:30.515Z,1011.59
2017-06-20T08:36:11.426Z,1011.58
2017-06-20T08:36:52.320Z,1011.56
2017-06-20T08:37:33.240Z,1011.55
2017-06-20T08:38:14.157Z,1011.57
2017-06-20T08:38:55.067Z,1011.53
2017-06-20T08:39:35.988Z,1011.54
2017-06-20T08:40:16.893Z,1011.57
2017-06-20T08:40:57.781Z,1011.6
2017-06-20T08:41:38.694Z,1011.56
2017-06-20T08:42:19.652Z,1011.59
2017-06-20T08:43:00.565Z,1011.53
2017-06-20T08:43:41.478Z,1011.53
2017-06-20T08:44:22.412Z,1011.52
2017-06-20T08:45:03.306Z,1011.51
2017-06-20T08:45:44.222Z,1011.61
2017-06-20T08:46:25.127Z,1011.6
2017-06-20T08:47:06.047Z,1011.59
2017-06-20T08:47:46.950Z,1011.57
2017-06-20T08:48:27.860Z,1011.55
2017-06-20T08:49:08.763Z,1011.59
2017-06-20T08:49:49.670Z,1011.63
2017-06-20T08:50:30.576Z,1011.61
2017-06-20T08:51:11.527Z,1011.59
2017-06-20T08:53:10.353Z,1011.63
2017-06-20T08:53:51.266Z,1011.62
2017-06-20T08:54:32.150Z,1011.6
2017-06-20T08:55:13.061Z,1011.62
2017-06-20T08:55:53.961Z,1011.66
2017-06-20T08:56:34.878Z,1011.62
2017-06-20T08:58:43.928Z,1011.62
2017-06-20T08:59:24.947Z,1011.67
2017-06-20T09:00:05.801Z,1011.63
2017-06-20T09:00:46.714Z,1011.67
2017-06-20T09:01:27.618Z,1011.65
2017-06-20T09:02:08.522Z,1011.68
2017-06-20T09:02:49.402Z,1011.67
2017-06-20T09:03:30.317Z,1011.68
2017-06-20T09:04:11.249Z,1011.73
2017-06-20T09:04:52.139Z,1011.78
2017-06-20T09:06:30.590Z,1011.72
2017-06-20T09:07:11.533Z,1011.72
2017-06-20T09:07:52.411Z,1011.73
2017-06-20T09:08:33.354Z,1011.68
2017-06-20T09:09:14.280Z,1011.66
2017-06-20T09:09:55.182Z,1011.66
2017-06-20T09:10:36.092Z,1011.69
2017-06-20T09:11:17.004Z,1011.63
2017-06-20T09:11:57.908Z,1011.7
2017-06-20T09:12:38.829Z,1011.7
2017-06-20T09:13:19.769Z,1011.7
2017-06-20T09:14:00.652Z,1011.68